createdAt,value
2024-03-12T00:00:47.155Z,2.55
2024-03-12T00:03:13.800Z,4.78
2024-03-12T00:05:42.404Z,1.98
2024-03-12T00:08:09.195Z,5.47
2024-03-12T00:10:36.003Z,3.05
2024-03-12T00:13:03.165Z,1.48
2024-03-12T00:15:30.346Z,1.33
2024-03-12T00:17:57.131Z,4.25
2024-03-12T00:20:36.677Z,1.35
2024-03-12T00:23:04.740Z,2.78
2024-03-12T00:25:31.813Z,1.75
2024-03-12T00:27:58.813Z,2.25
2024-03-12T00:30:26.447Z,1.20
2024-03-12T00:32:55.505Z,2.15
2024-03-12T00:35:25.681Z,1.60
2024-03-12T00:37:52.911Z,1.92
2024-03-12T00:40:21.398Z,2.67
2024-03-12T00:42:49.047Z,2.05
2024-03-12T00:45:21.459Z,1.35
2024-03-12T00:47:48.004Z,1.70
2024-03-12T00:50:15.598Z,1.90
2024-03-12T00:52:44.351Z,2.78
2024-03-12T00:55:11.755Z,4.35
2024-03-12T00:57:39.684Z,4.32
2024-03-12T01:00:26.427Z,2.30
2024-03-12T01:02:55.178Z,1.90
2024-03-12T01:05:26.626Z,2.78
2024-03-12T01:07:59.832Z,1.65
2024-03-12T01:10:28.540Z,2.45
2024-03-12T01:12:56.175Z,1.65
2024-03-12T01:15:27.709Z,3.45
2024-03-12T01:17:55.556Z,2.50
2024-03-12T01:20:23.228Z,1.95
2024-03-12T01:22:56.117Z,2.28
2024-03-12T01:25:23.538Z,4.10
2024-03-12T01:27:53.482Z,1.65
2024-03-12T01:30:21.972Z,3.78
2024-03-12T01:32:49.264Z,3.05
2024-03-12T01:35:16.121Z,2.15
2024-03-12T01:37:46.506Z,1.38
2024-03-12T01:40:21.393Z,1.63
2024-03-12T01:43:02.431Z,2.63
2024-03-12T01:45:30.696Z,2.28
2024-03-12T01:47:59.695Z,1.85
2024-03-12T01:50:28.573Z,1.73
2024-03-12T01:52:59.420Z,3.60
2024-03-12T01:55:25.923Z,4.05
2024-03-12T01:57:53.168Z,3.28
2024-03-12T02:00:20.461Z,2.83
2024-03-12T02:02:48.713Z,6.20
2024-03-12T02:05:15.159Z,2.33
2024-03-12T02:07:47.204Z,3.17
2024-03-12T02:10:15.068Z,5.65
2024-03-12T02:12:42.256Z,1.70
2024-03-12T02:15:09.700Z,3.15
2024-03-12T02:17:36.305Z,2.70
2024-03-12T02:20:04.475Z,2.00
2024-03-12T02:22:32.592Z,1.58
2024-03-12T02:25:02.446Z,2.40
2024-03-12T02:27:28.995Z,2.17
2024-03-12T02:29:55.488Z,1.88
2024-03-12T02:32:24.091Z,2.05
2024-03-12T02:34:53.656Z,1.65
2024-03-12T02:37:22.615Z,2.45
2024-03-12T02:39:49.180Z,1.75
2024-03-12T02:42:16.739Z,3.55
2024-03-12T02:44:43.390Z,1.58
2024-03-12T02:47:10.523Z,3.03
2024-03-12T02:49:38.149Z,2.63
2024-03-12T02:52:05.351Z,2.72
2024-03-12T02:54:32.152Z,3.92
2024-03-12T02:56:59.255Z,3.67
2024-03-12T02:59:28.590Z,5.72
2024-03-12T03:01:58.513Z,5.90
2024-03-12T03:04:25.119Z,3.90
2024-03-12T03:06:52.797Z,2.28
2024-03-12T03:09:19.733Z,3.08
2024-03-12T03:11:46.908Z,2.15
2024-03-12T03:14:13.362Z,4.47
2024-03-12T03:16:40.029Z,2.78
2024-03-12T03:19:06.553Z,2.63
2024-03-12T03:21:33.160Z,2.58
2024-03-12T03:23:59.992Z,1.40
2024-03-12T03:26:26.441Z,4.20
2024-03-12T03:28:52.875Z,3.50
2024-03-12T03:31:19.341Z,3.88
2024-03-12T03:33:49.046Z,2.67
2024-03-12T03:36:15.652Z,2.17
2024-03-12T03:38:42.348Z,2.40
2024-03-12T03:41:09.567Z,4.25
2024-03-12T03:43:37.420Z,2.05
2024-03-12T03:46:05.110Z,2.20
2024-03-12T03:48:31.661Z,3.25
2024-03-12T03:50:58.389Z,3.05
2024-03-12T03:53:24.861Z,3.33
2024-03-12T03:55:51.317Z,2.28
2024-03-12T03:58:19.676Z,2.33
2024-03-12T04:00:46.191Z,2.72
2024-03-12T04:03:12.935Z,3.03
2024-03-12T04:05:39.519Z,2.50
2024-03-12T04:08:07.706Z,7.40
2024-03-12T04:10:34.489Z,4.22
2024-03-12T04:13:01.416Z,3.53
2024-03-12T04:15:30.497Z,3.22
2024-03-12T04:17:57.633Z,3.30
2024-03-12T04:20:24.516Z,4.07
2024-03-12T04:22:51.050Z,5.13
2024-03-12T04:25:19.063Z,3.30
2024-03-12T04:27:46.652Z,4.45
2024-03-12T04:30:14.626Z,4.18
2024-03-12T04:32:42.116Z,2.63
2024-03-12T04:35:10.771Z,3.78
2024-03-12T04:37:38.282Z,2.80
2024-03-12T04:40:09.056Z,2.75
2024-03-12T04:42:39.820Z,3.22
2024-03-12T04:45:07.875Z,3.80
2024-03-12T04:47:36.505Z,3.28
2024-03-12T04:50:04.299Z,4.20
2024-03-12T04:52:30.872Z,4.63
2024-03-12T04:54:58.477Z,4.22
2024-03-12T04:57:25.131Z,7.38
2024-03-12T04:59:51.988Z,4.00
2024-03-12T05:02:18.379Z,3.53
2024-03-12T05:04:44.834Z,1.83
2024-03-12T05:07:12.877Z,3.25
2024-03-12T05:09:39.459Z,1.92
2024-03-12T05:12:06.473Z,2.83
2024-03-12T05:14:32.888Z,3.38
2024-03-12T05:17:00.603Z,3.10
2024-03-12T05:19:27.304Z,3.03
2024-03-12T05:21:53.897Z,3.38
2024-03-12T05:24:20.720Z,4.15
2024-03-12T05:26:50.296Z,3.00
2024-03-12T05:29:18.838Z,5.07
2024-03-12T05:31:45.440Z,2.53
2024-03-12T05:34:20.226Z,6.75
2024-03-12T05:36:49.973Z,2.42
2024-03-12T05:39:49.128Z,2.95
2024-03-12T05:42:34.771Z,5.32
2024-03-12T05:45:20.004Z,4.03
2024-03-12T05:48:04.844Z,3.25
2024-03-12T05:50:32.124Z,2.85
2024-03-12T05:52:58.572Z,4.38
2024-03-12T05:55:25.042Z,4.22
2024-03-12T05:57:51.827Z,3.95
2024-03-12T06:00:18.809Z,4.43
2024-03-12T06:02:46.022Z,6.65
2024-03-12T06:05:13.849Z,3.35
2024-03-12T06:07:45.981Z,6.00
2024-03-12T06:10:12.640Z,8.85
2024-03-12T06:12:39.491Z,4.05
2024-03-12T06:15:06.744Z,4.18
2024-03-12T06:17:33.996Z,6.38
2024-03-12T06:20:01.197Z,5.63
2024-03-12T06:22:27.949Z,6.43
2024-03-12T06:24:54.956Z,6.50
2024-03-12T06:27:22.248Z,5.95
2024-03-12T06:29:52.448Z,5.95
2024-03-12T06:32:22.386Z,5.18
2024-03-12T06:34:51.691Z,5.10
2024-03-12T06:37:18.602Z,5.30
2024-03-12T06:39:45.781Z,4.53
2024-03-12T06:42:13.919Z,5.07
2024-03-12T06:44:43.608Z,3.72
2024-03-12T06:47:11.321Z,3.03
2024-03-12T06:49:38.265Z,5.13
2024-03-12T06:52:07.619Z,5.18
2024-03-12T06:54:36.358Z,4.28
2024-03-12T06:57:05.535Z,3.47
2024-03-12T06:59:34.075Z,3.97
2024-03-12T07:02:04.502Z,3.25
2024-03-12T07:04:44.593Z,3.25
2024-03-12T07:07:12.789Z,2.95
2024-03-12T07:09:42.470Z,3.25
2024-03-12T07:12:09.990Z,2.95
2024-03-12T07:14:55.811Z,3.35
2024-03-12T07:17:23.280Z,3.22
2024-03-12T07:19:50.792Z,2.80
2024-03-12T07:22:20.123Z,3.67
2024-03-12T07:24:46.795Z,3.13
2024-03-12T07:27:14.943Z,2.95
2024-03-12T07:29:44.446Z,2.13
2024-03-12T07:32:11.422Z,2.45
2024-03-12T07:34:40.717Z,1.33
2024-03-12T07:37:07.536Z,8.90
2024-03-12T07:39:36.123Z,3.92
2024-03-12T07:42:13.573Z,3.38
2024-03-12T07:44:42.363Z,3.58
2024-03-12T07:47:10.706Z,4.70
2024-03-12T07:49:37.726Z,5.47
2024-03-12T07:52:07.028Z,2.83
2024-03-12T07:54:34.490Z,3.15
2024-03-12T07:57:01.678Z,3.47
2024-03-12T07:59:31.201Z,2.03
2024-03-12T08:01:58.938Z,2.28
2024-03-12T08:04:26.361Z,2.10
2024-03-12T08:06:53.882Z,3.53
2024-03-12T08:09:20.615Z,2.25
2024-03-12T08:11:48.429Z,5.15
2024-03-12T08:14:15.756Z,3.75
2024-03-12T08:16:42.639Z,3.17
2024-03-12T08:19:11.671Z,1.65
2024-03-12T08:21:39.899Z,3.05
2024-03-12T08:24:06.699Z,2.50
2024-03-12T08:26:33.359Z,2.85
2024-03-12T08:28:59.872Z,2.92
2024-03-12T08:31:33.409Z,2.60
2024-03-12T08:34:16.918Z,2.55
2024-03-12T08:36:43.973Z,3.08
2024-03-12T08:39:13.323Z,2.22
2024-03-12T08:41:40.837Z,2.10
2024-03-12T08:44:11.114Z,2.40
2024-03-12T08:46:38.745Z,5.78
2024-03-12T08:49:12.390Z,5.32
2024-03-12T08:51:42.788Z,3.03
2024-03-12T08:54:12.375Z,4.15
2024-03-12T08:56:38.949Z,2.22
2024-03-12T08:59:10.501Z,2.22
2024-03-12T09:01:37.197Z,2.40
2024-03-12T09:04:04.169Z,2.00
2024-03-12T09:06:33.873Z,2.47
2024-03-12T09:09:00.477Z,3.70
2024-03-12T09:11:28.186Z,8.85
2024-03-12T09:13:55.317Z,2.45
2024-03-12T09:16:23.175Z,2.40
2024-03-12T09:18:49.898Z,2.58
2024-03-12T09:21:16.697Z,3.60
2024-03-12T09:23:53.556Z,1.92
2024-03-12T09:26:28.766Z,3.95
2024-03-12T09:28:55.631Z,2.55
2024-03-12T09:31:22.075Z,3.00
2024-03-12T09:33:48.825Z,2.72
2024-03-12T09:36:15.756Z,2.45
2024-03-12T09:38:44.875Z,3.30
2024-03-12T09:41:13.894Z,4.28
2024-03-12T09:43:41.266Z,2.00
2024-03-12T09:46:08.244Z,5.40
2024-03-12T09:48:35.468Z,3.00
2024-03-12T09:51:02.403Z,5.05
2024-03-12T09:53:29.248Z,2.35
2024-03-12T09:55:56.505Z,2.53
2024-03-12T09:58:23.370Z,3.03
2024-03-12T10:00:50.452Z,2.42
2024-03-12T10:03:19.681Z,2.60
2024-03-12T10:05:47.408Z,2.00
2024-03-12T10:08:16.082Z,3.85
2024-03-12T10:10:53.337Z,1.25
2024-03-12T10:13:20.936Z,1.50
2024-03-12T10:15:51.550Z,1.40
2024-03-12T10:18:19.383Z,1.20
2024-03-12T10:20:51.088Z,1.17
2024-03-12T10:23:26.964Z,2.35
2024-03-12T10:26:08.530Z,2.03
2024-03-12T10:28:35.471Z,1.48
2024-03-12T10:31:11.004Z,3.85
2024-03-12T10:33:41.739Z,3.30
2024-03-12T10:36:12.383Z,7.47
2024-03-12T10:38:43.888Z,1.13
2024-03-12T10:41:16.555Z,2.47
2024-03-12T10:43:45.710Z,1.58
2024-03-12T10:46:13.015Z,1.02
2024-03-12T10:48:42.023Z,2.05
2024-03-12T10:53:43.220Z,1.02
2024-03-12T10:56:15.109Z,3.80
2024-03-12T10:58:47.319Z,2.72
2024-03-12T11:01:15.879Z,1.02
2024-03-12T11:03:42.692Z,0.88
2024-03-12T11:06:10.482Z,1.20
2024-03-12T11:08:39.900Z,1.25
2024-03-12T11:11:10.392Z,1.75
2024-03-12T11:13:37.048Z,0.77
2024-03-12T11:16:14.975Z,1.00
2024-03-12T11:18:42.036Z,1.17
2024-03-12T11:21:12.936Z,1.45
2024-03-12T11:23:39.326Z,2.53
2024-03-12T11:26:07.561Z,1.70
2024-03-12T11:28:48.511Z,1.17
2024-03-12T11:31:15.601Z,8.13
2024-03-12T11:33:43.657Z,2.85
2024-03-12T11:36:10.898Z,3.67
2024-03-12T11:38:38.465Z,3.47
2024-03-12T11:41:05.069Z,2.60
2024-03-12T11:43:39.747Z,5.03
2024-03-12T11:48:36.758Z,3.45
2024-03-12T11:51:10.426Z,4.70
2024-03-12T11:53:37.657Z,4.60
2024-03-12T11:56:09.249Z,3.90
2024-03-12T11:58:48.062Z,6.22
2024-03-12T12:01:31.216Z,4.45
2024-03-12T12:04:06.285Z,2.58
2024-03-12T12:06:33.958Z,7.40
2024-03-12T12:09:09.893Z,4.82
2024-03-12T12:11:39.255Z,4.65
2024-03-12T12:14:07.427Z,5.00
2024-03-12T12:16:33.959Z,4.78
2024-03-12T12:19:16.273Z,6.40
2024-03-12T12:21:48.249Z,4.75
2024-03-12T12:24:15.167Z,5.20
2024-03-12T12:26:44.820Z,4.60
2024-03-12T12:29:11.812Z,3.90
2024-03-12T12:31:40.187Z,6.82
2024-03-12T12:34:12.171Z,4.45
2024-03-12T12:36:44.374Z,5.30
2024-03-12T12:39:13.318Z,3.95
2024-03-12T12:41:47.003Z,5.00
2024-03-12T12:44:18.573Z,5.63
2024-03-12T12:46:46.644Z,5.32
2024-03-12T12:49:14.421Z,5.10
2024-03-12T12:51:42.904Z,5.68
2024-03-12T12:54:10.534Z,35.67
2024-03-12T12:56:42.748Z,6.18
2024-03-12T12:59:16.348Z,3.95
2024-03-12T13:01:43.535Z,4.88
2024-03-12T13:04:20.955Z,6.80
2024-03-12T13:06:47.519Z,5.70
2024-03-12T13:09:40.018Z,5.32
2024-03-12T13:12:10.516Z,4.03
2024-03-12T13:14:38.070Z,5.72
2024-03-12T13:17:06.852Z,6.50
2024-03-12T13:19:33.979Z,5.10
2024-03-12T13:22:01.704Z,4.80
2024-03-12T13:24:31.202Z,4.65
2024-03-12T13:26:59.175Z,5.65
2024-03-12T13:29:25.894Z,3.90
2024-03-12T13:31:52.422Z,8.30
2024-03-12T13:34:20.012Z,8.05
2024-03-12T13:36:48.835Z,5.88
2024-03-12T13:39:16.496Z,5.25
2024-03-12T13:41:43.204Z,5.47
2024-03-12T13:44:09.696Z,3.90
2024-03-12T13:46:37.411Z,3.88
2024-03-12T13:49:13.001Z,5.68
2024-03-12T13:51:40.652Z,3.65
2024-03-12T13:54:09.982Z,3.60
2024-03-12T13:56:37.548Z,2.85
2024-03-12T13:59:05.203Z,3.83
2024-03-12T14:01:32.444Z,4.32
2024-03-12T14:03:59.261Z,5.53
2024-03-12T14:06:25.788Z,5.15
2024-03-12T14:08:52.419Z,4.68
2024-03-12T14:11:19.189Z,8.77
2024-03-12T14:13:46.425Z,4.95
2024-03-12T14:16:13.267Z,3.42
2024-03-12T14:18:40.085Z,3.38
2024-03-12T14:21:07.279Z,3.47
2024-03-12T14:23:33.705Z,2.78
2024-03-12T14:26:00.372Z,4.05
2024-03-12T14:28:27.788Z,1.95
2024-03-12T14:30:55.755Z,3.80
2024-03-12T14:33:24.390Z,1.63
2024-03-12T14:35:52.349Z,3.15
2024-03-12T14:38:19.336Z,8.18
2024-03-12T14:40:46.230Z,8.63
2024-03-12T14:43:13.168Z,7.45
2024-03-12T14:45:39.824Z,9.35
2024-03-12T14:48:09.032Z,12.40
2024-03-12T14:50:35.854Z,10.95
2024-03-12T14:53:02.344Z,12.30
2024-03-12T14:55:28.995Z,11.20
2024-03-12T14:57:55.528Z,14.23
2024-03-12T15:00:23.320Z,10.88
2024-03-12T15:02:50.174Z,14.23
2024-03-12T15:05:16.629Z,12.25
2024-03-12T15:07:47.886Z,10.40
2024-03-12T15:10:14.498Z,16.20
2024-03-12T15:12:41.980Z,17.10
2024-03-12T15:15:13.292Z,11.45
2024-03-12T15:17:42.625Z,15.32
2024-03-12T15:20:17.041Z,13.75
2024-03-12T15:22:45.495Z,16.35
2024-03-12T15:25:13.021Z,17.80
2024-03-12T15:27:41.092Z,19.48
2024-03-12T15:30:08.621Z,22.50
2024-03-12T15:32:38.855Z,12.88
2024-03-12T15:35:06.844Z,13.23
2024-03-12T15:37:33.586Z,11.60
2024-03-12T15:40:07.049Z,11.38
2024-03-12T15:42:35.105Z,11.70
2024-03-12T15:45:06.165Z,10.10
2024-03-12T15:47:35.782Z,11.80
2024-03-12T15:50:02.603Z,10.27
2024-03-12T15:52:29.289Z,14.73
2024-03-12T15:54:56.137Z,13.27
2024-03-12T15:57:23.926Z,11.98
2024-03-12T15:59:50.433Z,11.25
2024-03-12T16:02:17.346Z,13.25
2024-03-12T16:04:44.339Z,12.35
2024-03-12T16:07:10.791Z,11.77
2024-03-12T16:09:37.612Z,12.75
2024-03-12T16:12:06.226Z,15.10
2024-03-12T16:14:32.921Z,10.75
2024-03-12T16:16:59.510Z,14.38
2024-03-12T16:19:31.191Z,12.05
2024-03-12T16:21:58.743Z,10.73
2024-03-12T16:24:29.342Z,13.80
2024-03-12T16:26:57.503Z,11.43
2024-03-12T16:29:24.911Z,14.43
2024-03-12T16:31:51.897Z,12.38
2024-03-12T16:34:18.440Z,13.23
2024-03-12T16:36:48.558Z,12.57
2024-03-12T16:39:15.345Z,15.23
2024-03-12T16:41:42.190Z,12.98
2024-03-12T16:44:08.754Z,13.43
2024-03-12T16:46:35.531Z,14.60
2024-03-12T16:49:02.295Z,14.43
2024-03-12T16:51:29.030Z,11.15
2024-03-12T16:53:55.710Z,12.02
2024-03-12T16:58:52.379Z,14.90
2024-03-12T17:01:21.047Z,13.77
2024-03-12T17:03:48.143Z,15.10
2024-03-12T17:06:17.401Z,17.75
2024-03-12T17:08:44.251Z,12.77
2024-03-12T17:11:11.021Z,19.70
2024-03-12T17:13:38.241Z,11.10
2024-03-12T17:16:08.195Z,11.27
2024-03-12T17:18:35.966Z,13.48
2024-03-12T17:21:03.698Z,11.18
2024-03-12T17:23:31.499Z,17.20
2024-03-12T17:25:58.320Z,12.60
2024-03-12T17:28:25.204Z,11.05
2024-03-12T17:30:52.155Z,10.73
2024-03-12T17:33:18.892Z,10.00
2024-03-12T17:35:45.668Z,14.05
2024-03-12T17:38:15.523Z,10.95
2024-03-12T17:40:42.758Z,11.45
2024-03-12T17:43:10.605Z,12.40
2024-03-12T17:45:39.565Z,11.00
2024-03-12T17:48:09.494Z,9.30
2024-03-12T17:50:36.305Z,10.63
2024-03-12T17:53:07.870Z,13.20
2024-03-12T17:55:35.689Z,13.60
2024-03-12T17:58:05.224Z,12.27
2024-03-12T18:00:34.473Z,16.42
2024-03-12T18:03:01.373Z,12.60
2024-03-12T18:05:28.165Z,11.68
2024-03-12T18:07:56.694Z,11.13
2024-03-12T18:10:27.134Z,9.23
2024-03-12T18:12:54.454Z,12.38
2024-03-12T18:15:21.754Z,12.20
2024-03-12T18:17:50.916Z,17.45
2024-03-12T18:20:24.689Z,14.15
2024-03-12T18:22:51.367Z,10.90
2024-03-12T18:25:18.162Z,9.35
2024-03-12T18:27:46.299Z,10.38
2024-03-12T18:30:13.140Z,10.43
2024-03-12T18:32:39.713Z,8.10
2024-03-12T18:35:09.880Z,7.88
2024-03-12T18:37:39.213Z,8.00
2024-03-12T18:40:12.750Z,13.32
2024-03-12T18:42:43.096Z,12.20
2024-03-12T18:45:14.005Z,10.98
2024-03-12T18:47:41.134Z,8.38
2024-03-12T18:50:13.455Z,8.15
2024-03-12T18:52:40.505Z,12.65
2024-03-12T18:55:11.593Z,8.30
2024-03-12T18:57:44.652Z,8.65
2024-03-12T19:00:20.089Z,10.70
2024-03-12T19:02:48.319Z,8.40
2024-03-12T19:05:19.352Z,9.18
2024-03-12T19:07:47.719Z,10.00
2024-03-12T19:10:15.382Z,9.02
2024-03-12T19:12:43.043Z,8.63
2024-03-12T19:15:11.915Z,14.88
2024-03-12T19:17:41.478Z,12.48
2024-03-12T19:20:30.127Z,14.15
2024-03-12T19:22:57.960Z,19.80
2024-03-12T19:25:26.758Z,17.42
2024-03-12T19:27:53.440Z,15.48
2024-03-12T19:30:20.697Z,14.75
2024-03-12T19:32:51.817Z,13.85
2024-03-12T19:35:19.676Z,12.63
2024-03-12T19:37:46.951Z,14.35
2024-03-12T19:40:14.368Z,10.95
2024-03-12T19:42:49.663Z,13.05
2024-03-12T19:45:21.267Z,12.13
2024-03-12T19:47:49.717Z,11.32
2024-03-12T19:50:18.731Z,17.60
2024-03-12T19:52:47.807Z,17.25
2024-03-12T19:55:19.404Z,13.30
2024-03-12T19:57:52.044Z,14.00
2024-03-12T20:00:20.282Z,17.98
2024-03-12T20:02:50.975Z,18.05
2024-03-12T20:05:20.621Z,13.77
2024-03-12T20:07:50.410Z,13.85
2024-03-12T20:10:21.032Z,14.02
2024-03-12T20:12:55.739Z,12.32
2024-03-12T20:15:24.864Z,13.98
2024-03-12T20:17:54.796Z,13.48
2024-03-12T20:20:24.120Z,14.52
2024-03-12T20:22:54.528Z,14.10
2024-03-12T20:25:25.374Z,16.67
2024-03-12T20:27:55.375Z,15.27
2024-03-12T20:30:28.405Z,12.00
2024-03-12T20:32:59.498Z,14.05
2024-03-12T20:35:28.492Z,13.95
2024-03-12T20:37:56.034Z,16.55
2024-03-12T20:40:25.711Z,16.70
2024-03-12T20:42:52.567Z,14.27
2024-03-12T20:45:22.352Z,15.95
2024-03-12T20:47:49.384Z,16.60
2024-03-12T20:50:18.061Z,13.32
2024-03-12T20:52:44.757Z,15.48
2024-03-12T20:55:11.939Z,16.65
2024-03-12T20:57:39.212Z,18.95
2024-03-12T21:00:17.992Z,19.58
2024-03-12T21:02:46.850Z,17.73
2024-03-12T21:05:14.397Z,13.15
2024-03-12T21:07:40.844Z,15.07
2024-03-12T21:10:07.941Z,15.30
2024-03-12T21:12:37.288Z,14.68
2024-03-12T21:15:07.981Z,14.85
2024-03-12T21:17:35.234Z,12.82
2024-03-12T21:20:12.311Z,15.48
2024-03-12T21:22:38.844Z,11.45
2024-03-12T21:25:07.669Z,22.95
2024-03-12T21:27:34.497Z,16.15
2024-03-12T21:30:02.285Z,15.50
2024-03-12T21:32:28.793Z,21.83
2024-03-12T21:34:55.171Z,16.38
2024-03-12T21:37:21.912Z,18.48
2024-03-12T21:39:48.747Z,15.55
2024-03-12T21:42:17.339Z,14.13
2024-03-12T21:44:45.509Z,12.57
2024-03-12T21:47:12.101Z,17.02
2024-03-12T21:49:38.774Z,16.98
2024-03-12T21:52:05.770Z,16.40
2024-03-12T21:54:32.484Z,15.38
2024-03-12T21:57:00.144Z,16.40
2024-03-12T21:59:26.656Z,17.00
2024-03-12T22:01:54.526Z,17.75
2024-03-12T22:04:23.923Z,14.82
2024-03-12T22:06:51.335Z,15.63
2024-03-12T22:09:18.616Z,15.52
2024-03-12T22:11:46.172Z,15.05
2024-03-12T22:14:12.874Z,13.15
2024-03-12T22:16:42.545Z,12.30
2024-03-12T22:19:10.112Z,10.05
2024-03-12T22:21:37.148Z,10.82
2024-03-12T22:24:05.745Z,9.88
2024-03-12T22:26:32.320Z,8.48
2024-03-12T22:28:59.235Z,10.75
2024-03-12T22:31:25.724Z,9.63
2024-03-12T22:33:52.347Z,10.55
2024-03-12T22:36:19.008Z,10.65
2024-03-12T22:38:46.199Z,15.20
2024-03-12T22:41:13.069Z,10.18
2024-03-12T22:43:39.794Z,9.02
2024-03-12T22:46:07.968Z,15.20
2024-03-12T22:48:34.979Z,10.75
2024-03-12T22:51:02.955Z,12.80
2024-03-12T22:53:32.528Z,15.68
2024-03-12T22:55:59.509Z,13.75
2024-03-12T22:58:27.916Z,9.82
2024-03-12T23:00:55.549Z,10.55
2024-03-12T23:03:23.975Z,13.00
2024-03-12T23:05:50.639Z,10.38
2024-03-12T23:08:20.361Z,7.65
2024-03-12T23:10:47.458Z,8.82
2024-03-12T23:13:16.735Z,6.93
2024-03-12T23:15:47.160Z,8.00
2024-03-12T23:18:13.696Z,9.65
2024-03-12T23:20:41.720Z,6.22
2024-03-12T23:23:08.694Z,11.63
2024-03-12T23:25:37.149Z,7.20
2024-03-12T23:28:05.476Z,6.68
2024-03-12T23:30:35.513Z,12.00
2024-03-12T23:33:03.366Z,9.48
2024-03-12T23:35:30.021Z,8.73
2024-03-12T23:37:58.140Z,11.68
2024-03-12T23:40:25.909Z,13.50
2024-03-12T23:42:57.102Z,14.75
2024-03-12T23:45:24.113Z,18.42
2024-03-12T23:47:52.684Z,10.32
2024-03-12T23:50:19.913Z,11.00
2024-03-12T23:52:49.784Z,13.07
2024-03-12T23:55:16.910Z,11.07
2024-03-12T23:57:44.015Z,8.82
